<?xml version="1.0" encoding="UTF-8"?><gpx xmlns="http://www.topografix.com/GPX/1/1" version="1.1" creator="iOrient"><trk><name>Квест "Код города"</name><trkseg><trkpt lat="56.8280700" lon="53.1318633"><time>2024-11-04T09:13:59.393</time></trkpt><trkpt lat="56.8281400" lon="53.1314067"><time>2024-11-04T09:14:01.410</time></trkpt><trkpt lat="56.8281050" lon="53.1313500"><time>2024-11-04T09:14:09.300</time></trkpt><trkpt lat="56.8280600" lon="53.1313017"><time>2024-11-04T09:14:17.313</time></trkpt><trkpt lat="56.8280950" lon="53.1312250"><time>2024-11-04T09:14:35.330</time></trkpt><trkpt lat="56.8281450" lon="53.1311883"><time>2024-11-04T09:14:39.327</time></trkpt><trkpt lat="56.8281967" lon="53.1311717"><time>2024-11-04T09:14:43.320</time></trkpt><trkpt lat="56.8282483" lon="53.1311283"><time>2024-11-04T09:14:47.353</time></trkpt><trkpt lat="56.8282950" lon="53.1310733"><time>2024-11-04T09:14:52.363</time></trkpt><trkpt lat="56.8283467" lon="53.1310300"><time>2024-11-04T09:14:56.367</time></trkpt><trkpt lat="56.8283900" lon="53.1310050"><time>2024-11-04T09:14:59.367</time></trkpt><trkpt lat="56.8284333" lon="53.1309800"><time>2024-11-04T09:15:02.370</time></trkpt><trkpt lat="56.8352667" lon="53.1270767"><time>2024-11-04T09:27:16.493</time></trkpt><trkpt lat="56.8350400" lon="53.1272433"><time>2024-11-04T09:27:17.857</time></trkpt><trkpt lat="56.8352983" lon="53.1270150"><time>2024-11-04T09:27:18.827</time></trkpt><trkpt lat="56.8353367" lon="53.1269683"><time>2024-11-04T09:27:24.300</time></trkpt><trkpt lat="56.8353333" lon="53.1270733"><time>2024-11-04T09:27:37.353</time></trkpt><trkpt lat="56.8353300" lon="53.1271600"><time>2024-11-04T09:27:40.297</time></trkpt><trkpt lat="56.8353333" lon="53.1272583"><time>2024-11-04T09:27:45.300</time></trkpt><trkpt lat="56.8353600" lon="53.1273433"><time>2024-11-04T09:27:54.293</time></trkpt><trkpt lat="56.8353633" lon="53.1274300"><time>2024-11-04T09:28:00.327</time></trkpt><trkpt lat="56.8353783" lon="53.1275200"><time>2024-11-04T09:28:06.367</time></trkpt><trkpt lat="56.8353850" lon="53.1275350"><time>2024-11-04T09:28:07.340</time></trkpt><trkpt lat="56.8354233" lon="53.1276067"><time>2024-11-04T09:28:12.347</time></trkpt><trkpt lat="56.8354383" lon="53.1276867"><time>2024-11-04T09:28:16.307</time></trkpt><trkpt lat="56.8354650" lon="53.1277783"><time>2024-11-04T09:28:21.323</time></trkpt><trkpt lat="56.8354967" lon="53.1278583"><time>2024-11-04T09:28:26.340</time></trkpt><trkpt lat="56.8354933" lon="53.1277550"><time>2024-11-04T09:28:33.343</time></trkpt><trkpt lat="56.8355000" lon="53.1276733"><time>2024-11-04T09:28:36.347</time></trkpt><trkpt lat="56.8355133" lon="53.1275783"><time>2024-11-04T09:28:40.333</time></trkpt><trkpt lat="56.8373833" lon="53.1329583"><time>2024-11-04T09:35:23.527</time></trkpt><trkpt lat="56.8374267" lon="53.1330117"><time>2024-11-04T09:35:24.897</time></trkpt><trkpt lat="56.8374583" lon="53.1330933"><time>2024-11-04T09:35:25.887</time></trkpt><trkpt lat="56.8375133" lon="53.1331450"><time>2024-11-04T09:35:28.330</time></trkpt><trkpt lat="56.8375133" lon="53.1331450"><time>2024-11-04T09:35:28.507</time></trkpt><trkpt lat="56.8375067" lon="53.1333083"><time>2024-11-04T09:35:31.373</time></trkpt><trkpt lat="56.8375083" lon="53.1333067"><time>2024-11-04T09:35:32.743</time></trkpt><trkpt lat="56.8375333" lon="53.1332300"><time>2024-11-04T09:35:38.330</time></trkpt><trkpt lat="56.8374900" lon="53.1331983"><time>2024-11-04T09:35:52.297</time></trkpt><trkpt lat="56.8381033" lon="53.1427367"><time>2024-11-04T09:45:45.570</time></trkpt><trkpt lat="56.8380883" lon="53.1427783"><time>2024-11-04T09:45:46.960</time></trkpt><trkpt lat="56.8380450" lon="53.1428983"><time>2024-11-04T09:45:47.473</time></trkpt><trkpt lat="56.8379583" lon="53.1430283"><time>2024-11-04T09:45:48.343</time></trkpt><trkpt lat="56.8379583" lon="53.1430283"><time>2024-11-04T09:45:48.460</time></trkpt><trkpt lat="56.8379150" lon="53.1431267"><time>2024-11-04T09:45:48.850</time></trkpt><trkpt lat="56.8379783" lon="53.1429617"><time>2024-11-04T09:45:50.277</time></trkpt><trkpt lat="56.8378483" lon="53.1431900"><time>2024-11-04T09:45:52.323</time></trkpt><trkpt lat="56.8378950" lon="53.1431200"><time>2024-11-04T09:45:56.330</time></trkpt><trkpt lat="56.8379617" lon="53.1431183"><time>2024-11-04T09:45:57.330</time></trkpt><trkpt lat="56.8380733" lon="53.1431533"><time>2024-11-04T09:45:58.327</time></trkpt><trkpt lat="56.8381917" lon="53.1432583"><time>2024-11-04T09:46:00.293</time></trkpt><trkpt lat="56.8382333" lon="53.1433117"><time>2024-11-04T09:46:01.330</time></trkpt><trkpt lat="56.8382850" lon="53.1433700"><time>2024-11-04T09:46:02.337</time></trkpt><trkpt lat="56.8382833" lon="53.1436917"><time>2024-11-04T09:46:03.353</time></trkpt><trkpt lat="56.8383033" lon="53.1438117"><time>2024-11-04T09:46:04.350</time></trkpt><trkpt lat="56.8382250" lon="53.1437617"><time>2024-11-04T09:46:05.350</time></trkpt><trkpt lat="56.8380333" lon="53.1436033"><time>2024-11-04T09:46:06.347</time></trkpt><trkpt lat="56.8380333" lon="53.1434900"><time>2024-11-04T09:46:07.350</time></trkpt><trkpt lat="56.8380617" lon="53.1433517"><time>2024-11-04T09:46:09.333</time></trkpt><trkpt lat="56.8380333" lon="53.1432767"><time>2024-11-04T09:46:10.317</time></trkpt><trkpt lat="56.8380017" lon="53.1432017"><time>2024-11-04T09:46:12.343</time></trkpt><trkpt lat="56.8379483" lon="53.1431567"><time>2024-11-04T09:46:15.333</time></trkpt><trkpt lat="56.8379083" lon="53.1431183"><time>2024-11-04T09:46:17.303</time></trkpt><trkpt lat="56.8378633" lon="53.1430800"><time>2024-11-04T09:46:22.343</time></trkpt><trkpt lat="56.8378917" lon="53.1430067"><time>2024-11-04T09:46:38.403</time></trkpt><trkpt lat="56.8379317" lon="53.1430450"><time>2024-11-04T09:46:43.350</time></trkpt><trkpt lat="56.8379817" lon="53.1430683"><time>2024-11-04T09:47:38.320</time></trkpt><trkpt lat="56.8380300" lon="53.1430633"><time>2024-11-04T09:47:43.323</time></trkpt><trkpt lat="56.8367550" lon="53.1386050"><time>2024-11-04T09:55:18.523</time></trkpt><trkpt lat="56.8367600" lon="53.1386150"><time>2024-11-04T09:55:19.893</time></trkpt><trkpt lat="56.8355400" lon="53.1378350"><time>2024-11-04T09:55:21.340</time></trkpt><trkpt lat="56.8355400" lon="53.1378350"><time>2024-11-04T09:55:21.380</time></trkpt><trkpt lat="56.8355950" lon="53.1378717"><time>2024-11-04T09:55:22.233</time></trkpt><trkpt lat="56.8355983" lon="53.1378733"><time>2024-11-04T09:55:23.127</time></trkpt><trkpt lat="56.8355500" lon="53.1379433"><time>2024-11-04T09:55:24.827</time></trkpt><trkpt lat="56.8355267" lon="53.1377883"><time>2024-11-04T09:55:25.823</time></trkpt><trkpt lat="56.8355700" lon="53.1377200"><time>2024-11-04T09:55:28.353</time></trkpt><trkpt lat="56.8356100" lon="53.1376717"><time>2024-11-04T09:55:31.330</time></trkpt><trkpt lat="56.8355817" lon="53.1376067"><time>2024-11-04T09:55:46.320</time></trkpt><trkpt lat="56.8355283" lon="53.1375783"><time>2024-11-04T09:55:55.317</time></trkpt><trkpt lat="56.8354833" lon="53.1375650"><time>2024-11-04T09:56:00.297</time></trkpt><trkpt lat="56.8354383" lon="53.1375667"><time>2024-11-04T09:56:06.347</time></trkpt><trkpt lat="56.8353917" lon="53.1375667"><time>2024-11-04T09:56:10.350</time></trkpt><trkpt lat="56.8353417" lon="53.1375683"><time>2024-11-04T09:56:14.367</time></trkpt><trkpt lat="56.8352867" lon="53.1375900"><time>2024-11-04T09:56:18.327</time></trkpt><trkpt lat="56.8352383" lon="53.1376267"><time>2024-11-04T09:56:23.373</time></trkpt><trkpt lat="56.8351917" lon="53.1376233"><time>2024-11-04T09:56:27.370</time></trkpt><trkpt lat="56.8310517" lon="53.1388150"><time>2024-11-04T10:03:16.233</time></trkpt><trkpt lat="56.8310517" lon="53.1388150"><time>2024-11-04T10:03:16.343</time></trkpt><trkpt lat="56.8310333" lon="53.1388317"><time>2024-11-04T10:03:17.127</time></trkpt><trkpt lat="56.8310200" lon="53.1388400"><time>2024-11-04T10:03:18.020</time></trkpt><trkpt lat="56.8309567" lon="53.1388333"><time>2024-11-04T10:03:19.327</time></trkpt><trkpt lat="56.8310500" lon="53.1387950"><time>2024-11-04T10:03:19.823</time></trkpt><trkpt lat="56.8310183" lon="53.1388650"><time>2024-11-04T10:03:21.337</time></trkpt><trkpt lat="56.8310017" lon="53.1389433"><time>2024-11-04T10:03:24.330</time></trkpt><trkpt lat="56.8310150" lon="53.1390617"><time>2024-11-04T10:03:31.333</time></trkpt><trkpt lat="56.8310500" lon="53.1391317"><time>2024-11-04T10:03:35.347</time></trkpt><trkpt lat="56.8310333" lon="53.1392100"><time>2024-11-04T10:03:46.347</time></trkpt><trkpt lat="56.8310167" lon="53.1392883"><time>2024-11-04T10:03:55.337</time></trkpt><trkpt lat="56.8310200" lon="53.1393833"><time>2024-11-04T10:04:06.343</time></trkpt><trkpt lat="56.8310417" lon="53.1394683"><time>2024-11-04T10:04:10.353</time></trkpt><trkpt lat="56.8310717" lon="53.1395500"><time>2024-11-04T10:04:14.310</time></trkpt><trkpt lat="56.8311050" lon="53.1396367"><time>2024-11-04T10:04:19.377</time></trkpt><trkpt lat="56.8311267" lon="53.1397367"><time>2024-11-04T10:04:23.370</time></trkpt><trkpt lat="56.8311350" lon="53.1398300"><time>2024-11-04T10:04:27.367</time></trkpt><trkpt lat="56.8311450" lon="53.1399200"><time>2024-11-04T10:04:30.373</time></trkpt><trkpt lat="56.8328667" lon="53.1431433"><time>2024-11-04T10:10:00.150</time></trkpt><trkpt lat="56.8328633" lon="53.1431417"><time>2024-11-04T10:10:00.993</time></trkpt><trkpt lat="56.8330783" lon="53.1433617"><time>2024-11-04T10:10:02.830</time></trkpt><trkpt lat="56.8330783" lon="53.1433617"><time>2024-11-04T10:10:02.847</time></trkpt><trkpt lat="56.8331333" lon="53.1433650"><time>2024-11-04T10:10:05.390</time></trkpt><trkpt lat="56.8329050" lon="53.1431783"><time>2024-11-04T10:10:06.293</time></trkpt><trkpt lat="56.8331283" lon="53.1433700"><time>2024-11-04T10:10:06.810</time></trkpt><trkpt lat="56.8331650" lon="53.1434383"><time>2024-11-04T10:10:13.390</time></trkpt><trkpt lat="56.8332400" lon="53.1434567"><time>2024-11-04T10:10:19.347</time></trkpt><trkpt lat="56.8333083" lon="53.1435567"><time>2024-11-04T10:10:21.310</time></trkpt><trkpt lat="56.8333367" lon="53.1434783"><time>2024-11-04T10:10:25.327</time></trkpt><trkpt lat="56.8333817" lon="53.1434317"><time>2024-11-04T10:10:40.303</time></trkpt><trkpt lat="56.8334250" lon="53.1433983"><time>2024-11-04T10:10:46.347</time></trkpt><trkpt lat="56.8334683" lon="53.1433617"><time>2024-11-04T10:10:51.350</time></trkpt><trkpt lat="56.8335167" lon="53.1433150"><time>2024-11-04T10:11:07.340</time></trkpt><trkpt lat="56.8335717" lon="53.1432933"><time>2024-11-04T10:11:12.343</time></trkpt><trkpt lat="56.8336167" lon="53.1432900"><time>2024-11-04T10:11:15.337</time></trkpt><trkpt lat="56.8336633" lon="53.1432550"><time>2024-11-04T10:11:20.317</time></trkpt><trkpt lat="56.8336500" lon="53.1535583"><time>2024-11-04T10:26:12.857</time></trkpt><trkpt lat="56.8336500" lon="53.1535583"><time>2024-11-04T10:26:12.970</time></trkpt><trkpt lat="56.8336483" lon="53.1535533"><time>2024-11-04T10:26:14.267</time></trkpt><trkpt lat="56.8336400" lon="53.1535483"><time>2024-11-04T10:26:15.643</time></trkpt><trkpt lat="56.8336133" lon="53.1534250"><time>2024-11-04T10:26:18.347</time></trkpt><trkpt lat="56.8335717" lon="53.1534633"><time>2024-11-04T10:26:51.320</time></trkpt><trkpt lat="56.8335250" lon="53.1534283"><time>2024-11-04T10:26:57.333</time></trkpt><trkpt lat="56.8334900" lon="53.1533683"><time>2024-11-04T10:27:02.327</time></trkpt><trkpt lat="56.8334600" lon="53.1532850"><time>2024-11-04T10:27:08.313</time></trkpt><trkpt lat="56.8334317" lon="53.1532167"><time>2024-11-04T10:27:13.350</time></trkpt><trkpt lat="56.8333833" lon="53.1531533"><time>2024-11-04T10:27:18.307</time></trkpt><trkpt lat="56.8333417" lon="53.1531050"><time>2024-11-04T10:27:22.307</time></trkpt><trkpt lat="56.8313083" lon="53.1508950"><time>2024-11-04T10:33:23.707</time></trkpt><trkpt lat="56.8313083" lon="53.1508850"><time>2024-11-04T10:33:25.093</time></trkpt><trkpt lat="56.8313233" lon="53.1507617"><time>2024-11-04T10:33:28.337</time></trkpt><trkpt lat="56.8313600" lon="53.1506283"><time>2024-11-04T10:33:30.360</time></trkpt><trkpt lat="56.8313983" lon="53.1505217"><time>2024-11-04T10:33:32.320</time></trkpt><trkpt lat="56.8314483" lon="53.1504300"><time>2024-11-04T10:33:35.337</time></trkpt><trkpt lat="56.8314483" lon="53.1504300"><time>2024-11-04T10:33:35.373</time></trkpt><trkpt lat="56.8314600" lon="53.1503400"><time>2024-11-04T10:33:40.390</time></trkpt><trkpt lat="56.8314633" lon="53.1503283"><time>2024-11-04T10:33:41.800</time></trkpt><trkpt lat="56.8314267" lon="53.1503967"><time>2024-11-04T10:33:59.317</time></trkpt><trkpt lat="56.8313850" lon="53.1504367"><time>2024-11-04T10:34:02.337</time></trkpt><trkpt lat="56.8313433" lon="53.1504900"><time>2024-11-04T10:34:09.310</time></trkpt><trkpt lat="56.8313050" lon="53.1505400"><time>2024-11-04T10:34:17.327</time></trkpt><trkpt lat="56.8312617" lon="53.1505183"><time>2024-11-04T10:34:50.367</time></trkpt><trkpt lat="56.8312433" lon="53.1504217"><time>2024-11-04T10:34:56.373</time></trkpt><trkpt lat="56.8312500" lon="53.1503233"><time>2024-11-04T10:35:00.370</time></trkpt><trkpt lat="56.8312433" lon="53.1502150"><time>2024-11-04T10:35:05.370</time></trkpt><trkpt lat="56.8312317" lon="53.1501167"><time>2024-11-04T10:35:09.360</time></trkpt><trkpt lat="56.8295750" lon="53.1488500"><time>2024-11-04T10:40:36.283</time></trkpt><trkpt lat="56.8296033" lon="53.1488183"><time>2024-11-04T10:40:37.693</time></trkpt><trkpt lat="56.8295817" lon="53.1488917"><time>2024-11-04T10:40:39.303</time></trkpt><trkpt lat="56.8295733" lon="53.1489733"><time>2024-11-04T10:40:41.310</time></trkpt><trkpt lat="56.8285200" lon="53.1505400"><time>2024-11-04T10:40:42.307</time></trkpt><trkpt lat="56.8290200" lon="53.1502233"><time>2024-11-04T10:40:45.297</time></trkpt><trkpt lat="56.8290200" lon="53.1502233"><time>2024-11-04T10:40:45.510</time></trkpt><trkpt lat="56.8288900" lon="53.1502200"><time>2024-11-04T10:40:46.297</time></trkpt><trkpt lat="56.8296700" lon="53.1488833"><time>2024-11-04T10:40:47.637</time></trkpt><trkpt lat="56.8296083" lon="53.1488417"><time>2024-11-04T10:40:49.317</time></trkpt><trkpt lat="56.8286233" lon="53.1498450"><time>2024-11-04T10:40:52.340</time></trkpt><trkpt lat="56.8286150" lon="53.1499850"><time>2024-11-04T10:40:53.313</time></trkpt><trkpt lat="56.8285900" lon="53.1501033"><time>2024-11-04T10:40:55.357</time></trkpt><trkpt lat="56.8284867" lon="53.1490083"><time>2024-11-04T10:40:58.283</time></trkpt><trkpt lat="56.8284133" lon="53.1489267"><time>2024-11-04T10:40:59.280</time></trkpt><trkpt lat="56.8283700" lon="53.1486167"><time>2024-11-04T10:41:01.313</time></trkpt><trkpt lat="56.8283517" lon="53.1485317"><time>2024-11-04T10:41:03.317</time></trkpt><trkpt lat="56.8283017" lon="53.1485283"><time>2024-11-04T10:41:17.330</time></trkpt><trkpt lat="56.8282567" lon="53.1485450"><time>2024-11-04T10:41:21.340</time></trkpt><trkpt lat="56.8282067" lon="53.1485433"><time>2024-11-04T10:41:25.337</time></trkpt><trkpt lat="56.8281600" lon="53.1485400"><time>2024-11-04T10:41:31.333</time></trkpt><trkpt lat="56.8281150" lon="53.1485350"><time>2024-11-04T10:41:36.347</time></trkpt><trkpt lat="56.8280683" lon="53.1485250"><time>2024-11-04T10:41:41.350</time></trkpt><trkpt lat="56.8280183" lon="53.1485167"><time>2024-11-04T10:41:45.333</time></trkpt><trkpt lat="56.8279683" lon="53.1485017"><time>2024-11-04T10:41:49.310</time></trkpt><trkpt lat="56.8279150" lon="53.1484817"><time>2024-11-04T10:41:53.340</time></trkpt><trkpt lat="56.8278633" lon="53.1484583"><time>2024-11-04T10:41:57.327</time></trkpt><trkpt lat="56.8278150" lon="53.1484133"><time>2024-11-04T10:42:01.340</time></trkpt><trkpt lat="56.8269617" lon="53.1427567"><time>2024-11-04T10:48:21.037</time></trkpt><trkpt lat="56.8270433" lon="53.1425617"><time>2024-11-04T10:48:22.453</time></trkpt><trkpt lat="56.8270417" lon="53.1425817"><time>2024-11-04T10:48:23.827</time></trkpt><trkpt lat="56.8270417" lon="53.1425817"><time>2024-11-04T10:48:24.090</time></trkpt><trkpt lat="56.8271317" lon="53.1425417"><time>2024-11-04T10:48:24.360</time></trkpt><trkpt lat="56.8271933" lon="53.1423367"><time>2024-11-04T10:48:25.720</time></trkpt><trkpt lat="56.8270633" lon="53.1426467"><time>2024-11-04T10:48:26.197</time></trkpt><trkpt lat="56.8276433" lon="53.1418933"><time>2024-11-04T10:48:30.337</time></trkpt><trkpt lat="56.8276783" lon="53.1418317"><time>2024-11-04T10:48:36.313</time></trkpt><trkpt lat="56.8276417" lon="53.1416233"><time>2024-11-04T10:48:37.290</time></trkpt><trkpt lat="56.8276717" lon="53.1415533"><time>2024-11-04T10:48:41.333</time></trkpt><trkpt lat="56.8277050" lon="53.1414883"><time>2024-11-04T10:48:45.323</time></trkpt><trkpt lat="56.8277150" lon="53.1414083"><time>2024-11-04T10:48:54.340</time></trkpt><trkpt lat="56.8277050" lon="53.1413200"><time>2024-11-04T10:49:04.357</time></trkpt><trkpt lat="56.8277000" lon="53.1412217"><time>2024-11-04T10:49:08.390</time></trkpt><trkpt lat="56.8276983" lon="53.1411367"><time>2024-11-04T10:49:11.323</time></trkpt><trkpt lat="56.8276967" lon="53.1410483"><time>2024-11-04T10:49:15.353</time></trkpt><trkpt lat="56.8276833" lon="53.1409700"><time>2024-11-04T10:49:18.343</time></trkpt><trkpt lat="56.8276733" lon="53.1408817"><time>2024-11-04T10:49:22.327</time></trkpt><trkpt lat="56.8276667" lon="53.1407983"><time>2024-11-04T10:49:26.343</time></trkpt><trkpt lat="56.8276583" lon="53.1407167"><time>2024-11-04T10:49:31.330</time></trkpt><trkpt lat="56.8276500" lon="53.1406350"><time>2024-11-04T10:49:35.323</time></trkpt><trkpt lat="56.8278467" lon="53.1360950"><time>2024-11-04T10:53:38.687</time></trkpt><trkpt lat="56.8278467" lon="53.1360950"><time>2024-11-04T10:53:38.737</time></trkpt><trkpt lat="56.8278533" lon="53.1361467"><time>2024-11-04T10:53:40.103</time></trkpt><trkpt lat="56.8278567" lon="53.1361700"><time>2024-11-04T10:53:41.470</time></trkpt><trkpt lat="56.8279550" lon="53.1361717"><time>2024-11-04T10:53:44.327</time></trkpt><trkpt lat="56.8279483" lon="53.1363517"><time>2024-11-04T10:53:46.303</time></trkpt><trkpt lat="56.8279050" lon="53.1364133"><time>2024-11-04T10:53:48.327</time></trkpt><trkpt lat="56.8278833" lon="53.1363083"><time>2024-11-04T10:53:49.343</time></trkpt><trkpt lat="56.8278567" lon="53.1364067"><time>2024-11-04T10:53:51.363</time></trkpt><trkpt lat="56.8278717" lon="53.1364850"><time>2024-11-04T10:53:54.363</time></trkpt><trkpt lat="56.8278833" lon="53.1365783"><time>2024-11-04T10:53:58.363</time></trkpt><trkpt lat="56.8278800" lon="53.1366783"><time>2024-11-04T10:54:02.367</time></trkpt><trkpt lat="56.8278633" lon="53.1367550"><time>2024-11-04T10:54:04.363</time></trkpt><trkpt lat="56.8278317" lon="53.1368217"><time>2024-11-04T10:54:06.367</time></trkpt><trkpt lat="56.8277967" lon="53.1368767"><time>2024-11-04T10:54:09.367</time></trkpt><trkpt lat="56.8277417" lon="53.1368833"><time>2024-11-04T10:54:14.370</time></trkpt><trkpt lat="56.8276983" lon="53.1369067"><time>2024-11-04T10:54:18.370</time></trkpt><trkpt lat="56.8276433" lon="53.1369150"><time>2024-11-04T10:54:22.367</time></trkpt><trkpt lat="56.8275983" lon="53.1369183"><time>2024-11-04T10:54:30.370</time></trkpt><trkpt lat="56.8275483" lon="53.1369267"><time>2024-11-04T10:54:36.370</time></trkpt><trkpt lat="56.8274950" lon="53.1369350"><time>2024-11-04T10:54:41.430</time></trkpt><trkpt lat="56.8276917" lon="53.1362117"><time>2024-11-04T10:58:29.217</time></trkpt><trkpt lat="56.8259867" lon="53.1365200"><time>2024-11-04T10:58:30.243</time></trkpt><trkpt lat="56.8259350" lon="53.1365283"><time>2024-11-04T10:58:45.337</time></trkpt><trkpt lat="56.8258800" lon="53.1365133"><time>2024-11-04T10:58:51.330</time></trkpt><trkpt lat="56.8258317" lon="53.1365417"><time>2024-11-04T10:58:57.330</time></trkpt><trkpt lat="56.8257800" lon="53.1365467"><time>2024-11-04T10:59:02.327</time></trkpt><trkpt lat="56.8257283" lon="53.1365617"><time>2024-11-04T10:59:07.333</time></trkpt><trkpt lat="56.8256800" lon="53.1365950"><time>2024-11-04T10:59:11.343</time></trkpt><trkpt lat="56.8256317" lon="53.1366033"><time>2024-11-04T10:59:15.337</time></trkpt><trkpt lat="56.8255800" lon="53.1366283"><time>2024-11-04T10:59:20.327</time></trkpt><trkpt lat="56.8255400" lon="53.1366800"><time>2024-11-04T10:59:26.373</time></trkpt><trkpt lat="56.8254900" lon="53.1367200"><time>2024-11-04T10:59:31.437</time></trkpt><trkpt lat="56.8234600" lon="53.1392650"><time>2024-11-04T11:03:51.150</time></trkpt><trkpt lat="56.8234600" lon="53.1392650"><time>2024-11-04T11:03:51.257</time></trkpt><trkpt lat="56.8234633" lon="53.1392667"><time>2024-11-04T11:03:52.543</time></trkpt><trkpt lat="56.8234667" lon="53.1392567"><time>2024-11-04T11:03:53.947</time></trkpt><trkpt lat="56.8233933" lon="53.1393683"><time>2024-11-04T11:04:01.330</time></trkpt><trkpt lat="56.8234117" lon="53.1394483"><time>2024-11-04T11:04:31.327</time></trkpt><trkpt lat="56.8234300" lon="53.1395267"><time>2024-11-04T11:04:40.420</time></trkpt><trkpt lat="56.8213100" lon="53.1406967"><time>2024-11-04T11:31:42.800</time></trkpt><trkpt lat="56.8212950" lon="53.1405233"><time>2024-11-04T11:31:44.210</time></trkpt><trkpt lat="56.8212850" lon="53.1403067"><time>2024-11-04T11:31:44.723</time></trkpt><trkpt lat="56.8212967" lon="53.1401417"><time>2024-11-04T11:31:46.383</time></trkpt><trkpt lat="56.8213100" lon="53.1400600"><time>2024-11-04T11:31:47.397</time></trkpt><trkpt lat="56.8212900" lon="53.1399383"><time>2024-11-04T11:31:49.400</time></trkpt><trkpt lat="56.8212483" lon="53.1398517"><time>2024-11-04T11:31:50.760</time></trkpt><trkpt lat="56.8211950" lon="53.1398167"><time>2024-11-04T11:31:51.283</time></trkpt><trkpt lat="56.8211583" lon="53.1397283"><time>2024-11-04T11:31:52.400</time></trkpt><trkpt lat="56.8211233" lon="53.1396550"><time>2024-11-04T11:31:53.407</time></trkpt><trkpt lat="56.8210783" lon="53.1395633"><time>2024-11-04T11:31:54.403</time></trkpt><trkpt lat="56.8210183" lon="53.1394683"><time>2024-11-04T11:31:56.410</time></trkpt><trkpt lat="56.8209683" lon="53.1393950"><time>2024-11-04T11:31:58.383</time></trkpt><trkpt lat="56.8209550" lon="53.1394000"><time>2024-11-04T11:32:00.733</time></trkpt><trkpt lat="56.8205000" lon="53.1395033"><time>2024-11-04T11:32:01.377</time></trkpt><trkpt lat="56.8205400" lon="53.1395883"><time>2024-11-04T11:32:03.750</time></trkpt><trkpt lat="56.8205017" lon="53.1395150"><time>2024-11-04T11:32:04.713</time></trkpt><trkpt lat="56.8204483" lon="53.1394583"><time>2024-11-04T11:32:08.363</time></trkpt><trkpt lat="56.8204767" lon="53.1393883"><time>2024-11-04T11:32:12.297</time></trkpt><trkpt lat="56.8204683" lon="53.1393017"><time>2024-11-04T11:32:16.347</time></trkpt><trkpt lat="56.8204717" lon="53.1392017"><time>2024-11-04T11:32:23.347</time></trkpt><trkpt lat="56.8204517" lon="53.1391117"><time>2024-11-04T11:32:28.333</time></trkpt><trkpt lat="56.8204483" lon="53.1390217"><time>2024-11-04T11:32:34.367</time></trkpt><trkpt lat="56.8204683" lon="53.1389267"><time>2024-11-04T11:32:39.363</time></trkpt><trkpt lat="56.8204667" lon="53.1388350"><time>2024-11-04T11:32:42.390</time></trkpt><trkpt lat="56.8204667" lon="53.1387300"><time>2024-11-04T11:32:45.353</time></trkpt><trkpt lat="56.8204683" lon="53.1386400"><time>2024-11-04T11:32:48.347</time></trkpt><trkpt lat="56.8204750" lon="53.1385367"><time>2024-11-04T11:32:52.363</time></trkpt><trkpt lat="56.8204850" lon="53.1384567"><time>2024-11-04T11:32:55.357</time></trkpt><trkpt lat="56.8204800" lon="53.1383583"><time>2024-11-04T11:32:59.367</time></trkpt><trkpt lat="56.8204700" lon="53.1382567"><time>2024-11-04T11:33:03.363</time></trkpt><trkpt lat="56.8204950" lon="53.1381800"><time>2024-11-04T11:33:09.367</time></trkpt><trkpt lat="56.8205333" lon="53.1381200"><time>2024-11-04T11:33:13.367</time></trkpt><trkpt lat="56.8205717" lon="53.1380650"><time>2024-11-04T11:33:17.370</time></trkpt><trkpt lat="56.8223550" lon="53.1332450"><time>2024-11-04T11:37:08.823</time></trkpt><trkpt lat="56.8223650" lon="53.1332167"><time>2024-11-04T11:37:10.203</time></trkpt><trkpt lat="56.8219850" lon="53.1346817"><time>2024-11-04T11:37:12.313</time></trkpt><trkpt lat="56.8219850" lon="53.1346817"><time>2024-11-04T11:37:15.310</time></trkpt><trkpt lat="56.8224333" lon="53.1332300"><time>2024-11-04T11:37:15.680</time></trkpt><trkpt lat="56.8224333" lon="53.1332283"><time>2024-11-04T11:37:17.033</time></trkpt><trkpt lat="56.8220533" lon="53.1346950"><time>2024-11-04T11:37:18.053</time></trkpt><trkpt lat="56.8220967" lon="53.1346667"><time>2024-11-04T11:37:19.267</time></trkpt><trkpt lat="56.8221417" lon="53.1346650"><time>2024-11-04T11:37:21.320</time></trkpt><trkpt lat="56.8221883" lon="53.1347083"><time>2024-11-04T11:37:22.273</time></trkpt><trkpt lat="56.8222383" lon="53.1347483"><time>2024-11-04T11:37:30.283</time></trkpt><trkpt lat="56.8223050" lon="53.1345650"><time>2024-11-04T11:37:31.310</time></trkpt><trkpt lat="56.8223500" lon="53.1345383"><time>2024-11-04T11:37:34.343</time></trkpt><trkpt lat="56.8224000" lon="53.1345167"><time>2024-11-04T11:37:37.333</time></trkpt><trkpt lat="56.8224467" lon="53.1345000"><time>2024-11-04T11:37:44.340</time></trkpt><trkpt lat="56.8224917" lon="53.1344700"><time>2024-11-04T11:37:51.307</time></trkpt><trkpt lat="56.8225650" lon="53.1344567"><time>2024-11-04T11:38:08.323</time></trkpt><trkpt lat="56.8226100" lon="53.1344283"><time>2024-11-04T11:38:13.340</time></trkpt><trkpt lat="56.8249067" lon="53.1321700"><time>2024-11-04T11:43:46.927</time></trkpt><trkpt lat="56.8250233" lon="53.1321700"><time>2024-11-04T11:43:48.317</time></trkpt><trkpt lat="56.8250233" lon="53.1321700"><time>2024-11-04T11:43:48.347</time></trkpt><trkpt lat="56.8250483" lon="53.1320433"><time>2024-11-04T11:43:49.343</time></trkpt><trkpt lat="56.8250550" lon="53.1320533"><time>2024-11-04T11:43:50.720</time></trkpt><trkpt lat="56.8251417" lon="53.1320150"><time>2024-11-04T11:43:53.420</time></trkpt><trkpt lat="56.8251750" lon="53.1318967"><time>2024-11-04T11:43:55.380</time></trkpt><trkpt lat="56.8252183" lon="53.1318367"><time>2024-11-04T11:43:56.363</time></trkpt><trkpt lat="56.8252583" lon="53.1317850"><time>2024-11-04T11:43:57.363</time></trkpt><trkpt lat="56.8253083" lon="53.1317217"><time>2024-11-04T11:43:59.403</time></trkpt><trkpt lat="56.8252317" lon="53.1318417"><time>2024-11-04T11:44:01.407</time></trkpt><trkpt lat="56.8252383" lon="53.1319233"><time>2024-11-04T11:44:15.350</time></trkpt><trkpt lat="56.8252867" lon="53.1319433"><time>2024-11-04T11:44:23.340</time></trkpt><trkpt lat="56.8253300" lon="53.1319650"><time>2024-11-04T11:44:27.337</time></trkpt><trkpt lat="56.8253700" lon="53.1320200"><time>2024-11-04T11:44:31.337</time></trkpt><trkpt lat="56.8254083" lon="53.1320867"><time>2024-11-04T11:44:35.307</time></trkpt><trkpt lat="56.8254550" lon="53.1321183"><time>2024-11-04T11:44:39.310</time></trkpt><trkpt lat="56.8254950" lon="53.1321667"><time>2024-11-04T11:44:42.327</time></trkpt><trkpt lat="56.8255200" lon="53.1322600"><time>2024-11-04T11:44:46.390</time></trkpt><trkpt lat="56.8255267" lon="53.1323483"><time>2024-11-04T11:44:51.353</time></trkpt><trkpt lat="56.8255417" lon="53.1324517"><time>2024-11-04T11:44:57.373</time></trkpt><trkpt lat="56.8255467" lon="53.1325417"><time>2024-11-04T11:45:01.373</time></trkpt><trkpt lat="56.8258500" lon="53.1345483"><time>2024-11-04T11:47:04.210</time></trkpt><trkpt lat="56.8258933" lon="53.1345700"><time>2024-11-04T11:47:11.307</time></trkpt><trkpt lat="56.8259500" lon="53.1345667"><time>2024-11-04T11:47:15.337</time></trkpt><trkpt lat="56.8260067" lon="53.1345417"><time>2024-11-04T11:47:19.347</time></trkpt><trkpt lat="56.8260567" lon="53.1345250"><time>2024-11-04T11:47:23.340</time></trkpt><trkpt lat="56.8261100" lon="53.1345100"><time>2024-11-04T11:47:28.327</time></trkpt><trkpt lat="56.8261650" lon="53.1344967"><time>2024-11-04T11:47:33.313</time></trkpt><trkpt lat="56.8262167" lon="53.1344867"><time>2024-11-04T11:47:37.357</time></trkpt><trkpt lat="56.8262650" lon="53.1344783"><time>2024-11-04T11:47:41.347</time></trkpt><trkpt lat="56.8263233" lon="53.1344633"><time>2024-11-04T11:47:46.370</time></trkpt><trkpt lat="56.8263817" lon="53.1344467"><time>2024-11-04T11:47:50.373</time></trkpt><trkpt lat="56.8264417" lon="53.1344300"><time>2024-11-04T11:47:53.387</time></trkpt><trkpt lat="56.8264933" lon="53.1344000"><time>2024-11-04T11:47:58.367</time></trkpt><trkpt lat="56.8265417" lon="53.1343783"><time>2024-11-04T11:48:01.373</time></trkpt><trkpt lat="56.8265917" lon="53.1343667"><time>2024-11-04T11:48:06.370</time></trkpt><trkpt lat="56.8266400" lon="53.1343833"><time>2024-11-04T11:48:10.367</time></trkpt><trkpt lat="56.8266867" lon="53.1343850"><time>2024-11-04T11:48:13.370</time></trkpt><trkpt lat="56.8267367" lon="53.1343900"><time>2024-11-04T11:48:17.433</time></trkpt><trkpt lat="56.8267850" lon="53.1343800"><time>2024-11-04T11:48:21.367</time></trkpt><trkpt lat="56.8268317" lon="53.1343683"><time>2024-11-04T11:48:24.370</time></trkpt><trkpt lat="56.8307733" lon="53.1307317"><time>2024-11-04T11:56:37.107</time></trkpt><trkpt lat="56.8307733" lon="53.1307317"><time>2024-11-04T11:56:37.207</time></trkpt><trkpt lat="56.8307750" lon="53.1307333"><time>2024-11-04T11:56:37.990</time></trkpt><trkpt lat="56.8307783" lon="53.1307283"><time>2024-11-04T11:56:38.867</time></trkpt><trkpt lat="56.8308233" lon="53.1307317"><time>2024-11-04T11:56:40.327</time></trkpt><trkpt lat="56.8308917" lon="53.1307317"><time>2024-11-04T11:56:40.807</time></trkpt><trkpt lat="56.8309317" lon="53.1306883"><time>2024-11-04T11:56:41.820</time></trkpt><trkpt lat="56.8309633" lon="53.1306267"><time>2024-11-04T11:56:43.337</time></trkpt><trkpt lat="56.8310017" lon="53.1305633"><time>2024-11-04T11:56:45.310</time></trkpt><trkpt lat="56.8309567" lon="53.1305167"><time>2024-11-04T11:56:48.343</time></trkpt><trkpt lat="56.8309133" lon="53.1304700"><time>2024-11-04T11:56:51.300</time></trkpt><trkpt lat="56.8308633" lon="53.1304500"><time>2024-11-04T11:56:54.310</time></trkpt><trkpt lat="56.8308183" lon="53.1304267"><time>2024-11-04T11:56:58.323</time></trkpt><trkpt lat="56.8308417" lon="53.1303483"><time>2024-11-04T11:57:10.347</time></trkpt><trkpt lat="56.8308800" lon="53.1302917"><time>2024-11-04T11:57:16.327</time></trkpt><trkpt lat="56.8309183" lon="53.1302150"><time>2024-11-04T11:57:28.353</time></trkpt><trkpt lat="56.8309500" lon="53.1301533"><time>2024-11-04T11:57:34.343</time></trkpt><trkpt lat="56.8310017" lon="53.1301600"><time>2024-11-04T11:57:39.397</time></trkpt><trkpt lat="56.8310583" lon="53.1301600"><time>2024-11-04T11:57:46.370</time></trkpt><trkpt lat="56.8311083" lon="53.1301550"><time>2024-11-04T11:57:49.363</time></trkpt><trkpt lat="56.8340583" lon="53.1288467"><time>2024-11-04T12:04:00.547</time></trkpt><trkpt lat="56.8340883" lon="53.1286967"><time>2024-11-04T12:04:01.407</time></trkpt><trkpt lat="56.8337500" lon="53.1291017"><time>2024-11-04T12:04:06.370</time></trkpt><trkpt lat="56.8337500" lon="53.1291017"><time>2024-11-04T12:04:06.870</time></trkpt><trkpt lat="56.8337133" lon="53.1291667"><time>2024-11-04T12:04:08.413</time></trkpt><trkpt lat="56.8340333" lon="53.1287800"><time>2024-11-04T12:04:09.267</time></trkpt><trkpt lat="56.8340350" lon="53.1287767"><time>2024-11-04T12:04:10.120</time></trkpt><trkpt lat="56.8337467" lon="53.1291850"><time>2024-11-04T12:04:12.393</time></trkpt><trkpt lat="56.8340517" lon="53.1287883"><time>2024-11-04T12:04:13.240</time></trkpt><trkpt lat="56.8340533" lon="53.1287850"><time>2024-11-04T12:04:14.127</time></trkpt><trkpt lat="56.8337567" lon="53.1291967"><time>2024-11-04T12:04:16.393</time></trkpt><trkpt lat="56.8340550" lon="53.1287950"><time>2024-11-04T12:04:17.290</time></trkpt><trkpt lat="56.8340567" lon="53.1287917"><time>2024-11-04T12:04:18.160</time></trkpt><trkpt lat="56.8337517" lon="53.1292350"><time>2024-11-04T12:04:20.397</time></trkpt><trkpt lat="56.8340533" lon="53.1288133"><time>2024-11-04T12:04:21.367</time></trkpt><trkpt lat="56.8340550" lon="53.1288100"><time>2024-11-04T12:04:22.247</time></trkpt><trkpt lat="56.8338133" lon="53.1291950"><time>2024-11-04T12:04:25.403</time></trkpt><trkpt lat="56.8338367" lon="53.1291183"><time>2024-11-04T12:04:29.407</time></trkpt><trkpt lat="56.8343033" lon="53.1294300"><time>2024-11-04T12:04:31.393</time></trkpt><trkpt lat="56.8343383" lon="53.1293667"><time>2024-11-04T12:04:33.360</time></trkpt><trkpt lat="56.8342267" lon="53.1296483"><time>2024-11-04T12:04:34.357</time></trkpt><trkpt lat="56.8342783" lon="53.1296350"><time>2024-11-04T12:04:37.357</time></trkpt><trkpt lat="56.8343067" lon="53.1297083"><time>2024-11-04T12:04:41.407</time></trkpt><trkpt lat="56.8342700" lon="53.1296267"><time>2024-11-04T12:04:45.360</time></trkpt><trkpt lat="56.8342017" lon="53.1296517"><time>2024-11-04T12:04:47.357</time></trkpt><trkpt lat="56.8341600" lon="53.1297217"><time>2024-11-04T12:04:49.350</time></trkpt><trkpt lat="56.8341567" lon="53.1296383"><time>2024-11-04T12:05:15.417</time></trkpt><trkpt lat="56.8349400" lon="53.1277967"><time>2024-11-04T12:07:46.833</time></trkpt><trkpt lat="56.8350583" lon="53.1278017"><time>2024-11-04T12:07:47.740</time></trkpt><trkpt lat="56.8352533" lon="53.1276900"><time>2024-11-04T12:07:48.250</time></trkpt><trkpt lat="56.8352367" lon="53.1275117"><time>2024-11-04T12:07:49.790</time></trkpt><trkpt lat="56.8352383" lon="53.1275267"><time>2024-11-04T12:07:50.667</time></trkpt><trkpt lat="56.8352067" lon="53.1270717"><time>2024-11-04T12:07:52.813</time></trkpt><trkpt lat="56.8352333" lon="53.1271467"><time>2024-11-04T12:07:56.303</time></trkpt><trkpt lat="56.8356583" lon="53.1271217"><time>2024-11-04T12:08:01.327</time></trkpt><trkpt lat="56.8352350" lon="53.1275783"><time>2024-11-04T12:08:02.240</time></trkpt><trkpt lat="56.8352783" lon="53.1276150"><time>2024-11-04T12:08:03.130</time></trkpt><trkpt lat="56.8352733" lon="53.1277000"><time>2024-11-04T12:08:04.357</time></trkpt><trkpt lat="56.8352750" lon="53.1277067"><time>2024-11-04T12:08:05.210</time></trkpt><trkpt lat="56.8352850" lon="53.1272483"><time>2024-11-04T12:08:07.363</time></trkpt><trkpt lat="56.8352883" lon="53.1276583"><time>2024-11-04T12:08:08.287</time></trkpt><trkpt lat="56.8352900" lon="53.1276583"><time>2024-11-04T12:08:09.177</time></trkpt><trkpt lat="56.8353033" lon="53.1272667"><time>2024-11-04T12:08:09.703</time></trkpt><trkpt lat="56.8352967" lon="53.1276667"><time>2024-11-04T12:08:10.587</time></trkpt><trkpt lat="56.8352967" lon="53.1276717"><time>2024-11-04T12:08:11.473</time></trkpt><trkpt lat="56.8352817" lon="53.1273267"><time>2024-11-04T12:08:13.853</time></trkpt><trkpt lat="56.8352867" lon="53.1276983"><time>2024-11-04T12:08:14.753</time></trkpt><trkpt lat="56.8352850" lon="53.1277017"><time>2024-11-04T12:08:15.617</time></trkpt><trkpt lat="56.8352417" lon="53.1277317"><time>2024-11-04T12:08:18.333</time></trkpt><trkpt lat="56.8351933" lon="53.1274017"><time>2024-11-04T12:08:18.847</time></trkpt><trkpt lat="56.8352450" lon="53.1277350"><time>2024-11-04T12:08:19.737</time></trkpt><trkpt lat="56.8352450" lon="53.1277383"><time>2024-11-04T12:08:20.600</time></trkpt><trkpt lat="56.8352933" lon="53.1276867"><time>2024-11-04T12:08:22.800</time></trkpt><trkpt lat="56.8352983" lon="53.1275867"><time>2024-11-04T12:08:27.370</time></trkpt><trkpt lat="56.8352983" lon="53.1275917"><time>2024-11-04T12:08:28.253</time></trkpt><trkpt lat="56.8353167" lon="53.1272850"><time>2024-11-04T12:08:30.323</time></trkpt><trkpt lat="56.8352933" lon="53.1272067"><time>2024-11-04T12:08:43.333</time></trkpt></trkseg></trk></gpx>